createdAt,value
2022-08-17T00:02:30.305Z,6.10
2022-08-17T00:05:45.257Z,6.37
2022-08-17T00:08:53.811Z,6.97
2022-08-17T00:12:43.430Z,5.95
2022-08-17T00:15:21.577Z,5.72
2022-08-17T00:19:01.748Z,6.03
2022-08-17T00:22:33.213Z,6.25
2022-08-17T00:25:15.013Z,5.60
2022-08-17T00:28:17.674Z,5.55
2022-08-17T00:31:21.759Z,6.22
2022-08-17T00:34:25.309Z,5.57
2022-08-17T00:37:30.707Z,5.75
2022-08-17T00:40:40.713Z,6.07
2022-08-17T00:43:54.848Z,5.85
2022-08-17T00:46:57.345Z,6.10
2022-08-17T00:50:00.444Z,6.25
2022-08-17T00:53:05.051Z,6.35
2022-08-17T00:56:14.525Z,5.87
2022-08-17T00:59:21.697Z,6.10
2022-08-17T01:02:24.849Z,5.50
2022-08-17T01:05:30.990Z,6.30
2022-08-17T01:08:35.772Z,6.55
2022-08-17T01:11:39.502Z,6.20
2022-08-17T01:14:42.288Z,6.20
2022-08-17T01:17:46.460Z,6.72
2022-08-17T01:20:53.717Z,6.12
2022-08-17T01:23:56.817Z,6.25
2022-08-17T01:26:59.821Z,6.10
2022-08-17T01:30:57.777Z,6.20
2022-08-17T01:33:30.593Z,6.00
2022-08-17T01:36:33.086Z,6.47
2022-08-17T01:39:45.098Z,6.20
2022-08-17T01:42:56.809Z,6.43
2022-08-17T01:46:02.639Z,6.55
2022-08-17T01:49:08.918Z,6.97
2022-08-17T01:52:12.680Z,6.53
2022-08-17T01:55:23.403Z,6.85
2022-08-17T01:58:28.729Z,6.62
2022-08-17T02:01:33.775Z,6.28
2022-08-17T02:04:36.658Z,7.10
2022-08-17T02:07:56.015Z,6.30
2022-08-17T02:11:11.576Z,6.32
2022-08-17T02:14:14.557Z,6.80
2022-08-17T02:17:17.368Z,6.22
2022-08-17T02:20:41.684Z,6.62
2022-08-17T02:23:47.668Z,6.78
2022-08-17T02:26:50.368Z,7.07
2022-08-17T02:29:53.953Z,6.60
2022-08-17T02:32:56.710Z,6.53
2022-08-17T02:35:59.485Z,6.75
2022-08-17T02:39:07.636Z,6.53
2022-08-17T02:42:10.412Z,6.12
2022-08-17T02:45:16.094Z,6.40
2022-08-17T02:48:30.778Z,6.68
2022-08-17T02:51:35.273Z,6.85
2022-08-17T02:54:41.056Z,6.12
2022-08-17T02:57:45.020Z,6.32
2022-08-17T03:00:48.598Z,6.28
2022-08-17T03:03:51.169Z,6.20
2022-08-17T03:06:53.951Z,6.50
2022-08-17T03:09:56.449Z,6.32
2022-08-17T03:12:59.724Z,6.37
2022-08-17T03:16:02.241Z,6.25
2022-08-17T03:19:05.236Z,6.57
2022-08-17T03:22:36.456Z,6.57
2022-08-17T03:25:35.663Z,6.97
2022-08-17T03:28:39.065Z,6.45
2022-08-17T03:31:41.825Z,6.60
2022-08-17T03:34:44.343Z,6.25
2022-08-17T03:37:47.340Z,6.93
2022-08-17T03:41:00.062Z,6.53
2022-08-17T03:44:03.803Z,6.57
2022-08-17T03:47:24.840Z,6.50
2022-08-17T03:50:47.595Z,6.95
2022-08-17T03:54:17.166Z,7.70
2022-08-17T03:57:20.353Z,7.45
2022-08-17T04:00:23.173Z,7.50
2022-08-17T04:03:25.975Z,7.43
2022-08-17T04:06:28.746Z,6.95
2022-08-17T04:09:31.658Z,7.20
2022-08-17T04:12:50.581Z,7.18
2022-08-17T04:15:54.220Z,7.45
2022-08-17T04:18:57.008Z,7.03
2022-08-17T04:21:59.775Z,7.10
2022-08-17T04:25:22.323Z,7.30
2022-08-17T04:28:25.167Z,7.43
2022-08-17T04:31:27.867Z,7.30
2022-08-17T04:34:30.688Z,7.30
2022-08-17T04:37:33.182Z,7.50
2022-08-17T04:40:54.738Z,7.20
2022-08-17T04:43:58.615Z,7.18
2022-08-17T04:47:01.506Z,7.40
2022-08-17T04:50:04.436Z,7.22
2022-08-17T04:53:07.646Z,7.37
2022-08-17T04:56:16.970Z,7.78
2022-08-17T04:59:22.451Z,7.22
2022-08-17T05:02:24.945Z,7.30
2022-08-17T05:05:31.114Z,7.47
2022-08-17T05:08:33.729Z,7.47
2022-08-17T05:11:37.413Z,7.62
2022-08-17T05:14:39.903Z,7.90
2022-08-17T05:17:43.485Z,8.18
2022-08-17T05:20:46.753Z,7.82
2022-08-17T05:23:50.472Z,7.40
2022-08-17T05:30:09.299Z,7.25
2022-08-17T05:33:16.569Z,7.75
2022-08-17T05:36:41.592Z,7.28
2022-08-17T05:39:42.060Z,6.90
2022-08-17T05:42:44.809Z,7.25
2022-08-17T05:46:05.520Z,7.28
2022-08-17T05:49:09.575Z,6.97
2022-08-17T05:52:25.697Z,7.22
2022-08-17T05:55:58.446Z,7.35
2022-08-17T05:59:27.950Z,7.07
2022-08-17T06:03:04.463Z,7.93
2022-08-17T06:06:13.135Z,6.70
2022-08-17T06:09:30.260Z,7.10
2022-08-17T06:12:59.697Z,6.60
2022-08-17T06:16:04.371Z,7.37
2022-08-17T06:19:38.408Z,7.18
2022-08-17T06:22:52.565Z,6.32
2022-08-17T06:26:03.724Z,6.43
2022-08-17T06:29:25.181Z,6.93
2022-08-17T06:32:29.380Z,7.00
2022-08-17T06:35:47.622Z,6.80
2022-08-17T06:38:55.681Z,6.78
2022-08-17T06:45:49.097Z,6.87
2022-08-17T06:49:13.931Z,9.65
2022-08-17T06:52:42.173Z,7.43
2022-08-17T06:55:52.353Z,6.70
2022-08-17T06:58:57.782Z,6.82
2022-08-17T07:02:05.632Z,6.87
2022-08-17T07:05:09.716Z,6.37
2022-08-17T07:08:35.253Z,6.47
2022-08-17T07:11:51.834Z,6.35
2022-08-17T07:15:17.416Z,5.87
2022-08-17T07:18:21.418Z,6.20
2022-08-17T07:21:38.686Z,6.07
2022-08-17T07:24:52.792Z,6.78
2022-08-17T07:27:59.739Z,6.43
2022-08-17T07:31:04.655Z,6.65
2022-08-17T07:34:14.463Z,6.15
2022-08-17T07:37:19.556Z,6.70
2022-08-17T07:40:34.051Z,6.18
2022-08-17T07:43:39.547Z,6.07
2022-08-17T07:47:12.323Z,6.12
2022-08-17T07:50:29.269Z,5.70
2022-08-17T07:53:32.065Z,6.37
2022-08-17T07:56:53.531Z,6.05
2022-08-17T08:00:02.131Z,5.35
2022-08-17T08:03:27.311Z,5.55
2022-08-17T08:06:37.901Z,5.20
2022-08-17T08:09:42.569Z,5.78
2022-08-17T08:12:48.307Z,6.07
2022-08-17T08:16:19.807Z,5.80
2022-08-17T08:19:25.565Z,6.03
2022-08-17T08:23:02.991Z,5.62
2022-08-17T08:26:33.800Z,6.15
2022-08-17T08:29:39.821Z,6.12
2022-08-17T08:33:12.552Z,6.07
2022-08-17T08:37:14.295Z,6.03
2022-08-17T08:40:18.023Z,6.80
2022-08-17T08:43:52.860Z,6.20
2022-08-17T08:47:07.361Z,5.90
2022-08-17T08:50:40.269Z,6.53
2022-08-17T08:54:05.966Z,6.37
2022-08-17T08:57:24.366Z,5.30
2022-08-17T09:00:36.131Z,5.68
2022-08-17T09:07:39.080Z,6.00
2022-08-17T09:11:04.918Z,6.05
2022-08-17T09:14:21.478Z,5.72
2022-08-17T09:17:36.157Z,5.47
2022-08-17T09:20:50.305Z,5.50
2022-08-17T09:24:00.110Z,5.50
2022-08-17T09:27:19.641Z,5.72
2022-08-17T09:30:33.613Z,6.05
2022-08-17T09:33:43.228Z,5.30
2022-08-17T09:36:56.460Z,5.57
2022-08-17T09:40:17.309Z,5.50
2022-08-17T09:43:36.363Z,5.72
2022-08-17T09:46:53.344Z,5.12
2022-08-17T09:50:01.549Z,5.60
2022-08-17T09:53:04.439Z,5.18
2022-08-17T09:56:10.114Z,5.40
2022-08-17T09:59:45.958Z,5.57
2022-08-17T10:03:26.051Z,5.37
2022-08-17T10:06:33.623Z,5.00
2022-08-17T10:12:47.104Z,5.18
2022-08-17T10:16:01.894Z,5.62
2022-08-17T10:19:23.033Z,5.37
2022-08-17T10:22:54.999Z,4.95
2022-08-17T10:26:16.596Z,4.57
2022-08-17T10:29:26.917Z,4.87
2022-08-17T10:32:46.038Z,5.10
2022-08-17T10:35:52.802Z,4.90
2022-08-17T10:39:21.301Z,5.32
2022-08-17T10:42:33.332Z,4.50
2022-08-17T10:45:51.473Z,4.85
2022-08-17T10:49:29.399Z,4.82
2022-08-17T10:52:32.301Z,4.78
2022-08-17T10:55:34.868Z,4.53
2022-08-17T10:58:59.193Z,4.12
2022-08-17T11:02:04.637Z,4.20
2022-08-17T11:05:44.226Z,4.50
2022-08-17T11:09:02.757Z,3.83
2022-08-17T11:12:31.185Z,3.85
2022-08-17T11:15:52.139Z,3.90
2022-08-17T11:19:52.374Z,3.78
2022-08-17T11:23:19.669Z,3.75
2022-08-17T11:26:27.271Z,4.30
2022-08-17T11:29:37.468Z,3.70
2022-08-17T11:32:54.583Z,4.03
2022-08-17T11:36:33.344Z,4.32
2022-08-17T11:40:13.220Z,3.58
2022-08-17T11:43:38.355Z,3.75
2022-08-17T11:47:36.595Z,3.72
2022-08-17T11:51:12.362Z,3.72
2022-08-17T11:54:34.678Z,3.80
2022-08-17T11:57:40.371Z,3.47
2022-08-17T12:00:46.427Z,4.30
2022-08-17T12:03:55.906Z,3.50
2022-08-17T12:07:16.789Z,3.50
2022-08-17T12:10:31.676Z,3.40
2022-08-17T12:13:47.783Z,3.50
2022-08-17T12:17:05.527Z,3.63
2022-08-17T12:20:15.560Z,3.62
2022-08-17T12:23:41.454Z,3.70
2022-08-17T12:26:57.028Z,3.42
2022-08-17T12:30:09.686Z,3.40
2022-08-17T12:33:28.134Z,3.60
2022-08-17T12:36:33.838Z,3.60
2022-08-17T12:40:11.401Z,3.60
2022-08-17T12:43:27.486Z,3.50
2022-08-17T12:46:44.779Z,3.80
2022-08-17T12:49:51.403Z,3.50
2022-08-17T12:52:59.734Z,3.60
2022-08-17T12:56:12.060Z,3.50
2022-08-17T12:59:15.660Z,3.12
2022-08-17T13:02:47.267Z,3.30
2022-08-17T13:05:52.528Z,3.92
2022-08-17T13:08:55.478Z,3.90
2022-08-17T13:12:02.226Z,3.62
2022-08-17T13:15:05.636Z,3.35
2022-08-17T13:18:33.810Z,3.83
2022-08-17T13:21:37.999Z,3.87
2022-08-17T13:24:53.082Z,3.50
2022-08-17T13:27:56.797Z,3.55
2022-08-17T13:31:27.851Z,3.58
2022-08-17T13:35:14.219Z,3.60
2022-08-17T13:38:37.587Z,3.40
2022-08-17T13:41:40.663Z,3.53
2022-08-17T13:44:43.272Z,3.40
2022-08-17T13:47:46.190Z,3.20
2022-08-17T13:50:56.342Z,3.22
2022-08-17T13:54:02.690Z,3.00
2022-08-17T13:57:07.405Z,3.30
2022-08-17T14:00:30.677Z,3.40
2022-08-17T14:03:33.569Z,3.22
2022-08-17T14:07:15.444Z,3.20
2022-08-17T14:10:18.929Z,3.65
2022-08-17T14:13:21.482Z,3.67
2022-08-17T14:16:24.328Z,3.30
2022-08-17T14:19:26.953Z,3.95
2022-08-17T14:22:32.351Z,3.20
2022-08-17T14:25:35.141Z,3.20
2022-08-17T14:28:38.805Z,3.00
2022-08-17T14:31:54.297Z,3.12
2022-08-17T14:34:59.586Z,2.80
2022-08-17T14:38:02.277Z,2.80
2022-08-17T14:41:05.484Z,2.83
2022-08-17T14:44:12.470Z,2.67
2022-08-17T14:47:15.945Z,3.10
2022-08-17T14:50:21.144Z,2.65
2022-08-17T14:53:25.155Z,2.80
2022-08-17T14:56:28.212Z,3.15
2022-08-17T14:59:38.182Z,3.15
2022-08-17T15:02:53.778Z,2.92
2022-08-17T15:05:56.845Z,2.80
2022-08-17T15:08:59.415Z,2.95
2022-08-17T15:12:03.787Z,3.08
2022-08-17T15:15:09.262Z,2.90
2022-08-17T15:18:12.546Z,3.22
2022-08-17T15:21:15.975Z,3.20
2022-08-17T15:24:19.006Z,2.80
2022-08-17T15:27:24.229Z,3.15
2022-08-17T15:30:36.202Z,2.70
2022-08-17T15:33:38.795Z,2.78
2022-08-17T15:36:49.491Z,2.87
2022-08-17T15:39:53.049Z,2.95
2022-08-17T15:42:57.778Z,2.70
2022-08-17T15:46:12.344Z,3.05
2022-08-17T15:49:15.485Z,3.30
2022-08-17T15:52:26.488Z,3.20
2022-08-17T15:55:31.162Z,2.92
2022-08-17T15:58:35.511Z,3.12
2022-08-17T16:03:01.076Z,2.92
2022-08-17T16:05:13.962Z,3.15
2022-08-17T16:08:21.375Z,3.20
2022-08-17T16:11:24.660Z,2.92
2022-08-17T16:14:33.845Z,3.42
2022-08-17T16:17:39.709Z,3.40
2022-08-17T16:20:44.364Z,3.08
2022-08-17T16:23:49.611Z,3.28
2022-08-17T16:26:52.124Z,3.20
2022-08-17T16:29:55.537Z,3.30
2022-08-17T16:33:00.610Z,3.58
2022-08-17T16:36:03.900Z,3.30
2022-08-17T16:39:07.462Z,3.35
2022-08-17T16:42:28.990Z,3.22
2022-08-17T16:45:40.241Z,3.40
2022-08-17T16:48:44.434Z,3.10
2022-08-17T16:51:48.432Z,2.55
2022-08-17T16:54:52.010Z,2.83
2022-08-17T16:57:54.582Z,2.80
2022-08-17T17:00:59.505Z,2.72
2022-08-17T17:04:05.425Z,2.78
2022-08-17T17:07:38.022Z,2.53
2022-08-17T17:10:53.197Z,3.03
2022-08-17T17:13:59.988Z,2.80
2022-08-17T17:17:06.013Z,3.00
2022-08-17T17:20:21.754Z,3.10
2022-08-17T17:23:35.644Z,3.20
2022-08-17T17:26:53.857Z,3.08
2022-08-17T17:29:56.327Z,3.20
2022-08-17T17:33:05.937Z,3.30
2022-08-17T17:36:27.185Z,3.15
2022-08-17T17:39:59.898Z,3.10
2022-08-17T17:43:34.893Z,3.17
2022-08-17T17:46:39.957Z,2.72
2022-08-17T17:49:46.027Z,2.90
2022-08-17T17:53:09.566Z,2.87
2022-08-17T17:56:43.015Z,3.10
2022-08-17T17:59:59.091Z,3.05
2022-08-17T18:03:11.081Z,2.67
2022-08-17T18:06:40.934Z,3.25
2022-08-17T18:10:04.451Z,3.17
2022-08-17T18:14:01.914Z,3.10
2022-08-17T18:17:06.509Z,3.30
2022-08-17T18:20:09.502Z,3.35
2022-08-17T18:23:12.685Z,3.55
2022-08-17T18:26:34.270Z,3.30
2022-08-17T18:29:42.759Z,3.70
2022-08-17T18:32:46.745Z,3.25
2022-08-17T18:35:59.275Z,3.30
2022-08-17T18:39:16.555Z,3.40
2022-08-17T18:42:28.641Z,3.17
2022-08-17T18:45:41.019Z,3.12
2022-08-17T18:48:53.554Z,3.47
2022-08-17T18:52:27.677Z,2.92
2022-08-17T18:55:31.304Z,3.60
2022-08-17T18:58:34.589Z,3.78
2022-08-17T19:02:08.945Z,3.53
2022-08-17T19:05:33.077Z,3.60
2022-08-17T19:08:38.156Z,3.67
2022-08-17T19:11:41.044Z,3.90
2022-08-17T19:14:44.035Z,3.67
2022-08-17T19:17:55.363Z,4.43
2022-08-17T19:21:07.789Z,3.75
2022-08-17T19:24:19.618Z,3.97
2022-08-17T19:27:46.507Z,3.85
2022-08-17T19:31:04.009Z,4.03
2022-08-17T19:34:06.581Z,4.47
2022-08-17T19:37:29.452Z,4.15
2022-08-17T19:40:56.073Z,4.18
2022-08-17T19:44:32.887Z,4.07
2022-08-17T19:48:04.317Z,3.87
2022-08-17T19:51:17.837Z,4.40
2022-08-17T19:54:42.210Z,4.45
2022-08-17T19:57:54.354Z,4.50
2022-08-17T20:00:57.669Z,4.22
2022-08-17T20:04:11.573Z,4.12
2022-08-17T20:07:20.932Z,4.10
2022-08-17T20:10:37.292Z,4.35
2022-08-17T20:14:03.765Z,4.43
2022-08-17T20:17:06.914Z,4.20
2022-08-17T20:20:37.732Z,4.35
2022-08-17T20:24:03.153Z,4.25
2022-08-17T20:27:18.481Z,4.60
2022-08-17T20:30:40.809Z,4.28
2022-08-17T20:33:43.851Z,4.30
2022-08-17T20:37:24.118Z,4.32
2022-08-17T20:40:31.204Z,4.68
2022-08-17T20:43:33.983Z,4.85
2022-08-17T20:46:36.498Z,4.50
2022-08-17T20:49:49.340Z,4.60
2022-08-17T20:53:00.402Z,4.47
2022-08-17T20:56:03.390Z,4.53
2022-08-17T20:59:05.959Z,4.00
2022-08-17T21:02:19.985Z,4.53
2022-08-17T21:05:34.462Z,4.20
2022-08-17T21:08:53.201Z,4.28
2022-08-17T21:12:04.469Z,3.90
2022-08-17T21:15:23.731Z,4.05
2022-08-17T21:18:51.748Z,3.67
2022-08-17T21:22:16.572Z,4.55
2022-08-17T21:25:43.019Z,4.40
2022-08-17T21:29:01.724Z,4.40
2022-08-17T21:32:30.067Z,4.00
2022-08-17T21:36:00.344Z,4.07
2022-08-17T21:39:09.940Z,3.85
2022-08-17T21:42:12.996Z,4.15
2022-08-17T21:45:27.431Z,4.15
2022-08-17T21:48:40.757Z,4.43
2022-08-17T21:51:55.309Z,4.20
2022-08-17T21:55:03.310Z,4.55
2022-08-17T21:58:28.833Z,4.00
2022-08-17T22:01:50.609Z,4.03
2022-08-17T22:05:02.872Z,4.15
2022-08-17T22:08:09.677Z,3.92
2022-08-17T22:11:19.606Z,4.20
2022-08-17T22:14:53.444Z,4.40
2022-08-17T22:17:58.580Z,4.30
2022-08-17T22:21:05.224Z,3.67
2022-08-17T22:24:21.636Z,4.20
2022-08-17T22:27:45.808Z,3.80
2022-08-17T22:31:04.391Z,4.10
2022-08-17T22:34:14.523Z,4.32
2022-08-17T22:37:27.940Z,4.60
2022-08-17T22:40:32.907Z,4.15
2022-08-17T22:43:38.492Z,4.20
2022-08-17T22:46:56.519Z,4.50
2022-08-17T22:50:02.513Z,4.45
2022-08-17T22:53:38.025Z,4.65
2022-08-17T22:57:11.736Z,4.80
2022-08-17T23:00:28.908Z,4.90
2022-08-17T23:03:31.800Z,4.78
2022-08-17T23:06:36.044Z,5.03
2022-08-17T23:09:39.380Z,4.82
2022-08-17T23:12:42.219Z,4.22
2022-08-17T23:15:45.907Z,4.62
2022-08-17T23:18:52.244Z,5.20
2022-08-17T23:21:57.161Z,4.25
2022-08-17T23:24:59.855Z,4.82
2022-08-17T23:28:05.368Z,4.60
2022-08-17T23:31:07.940Z,5.10
2022-08-17T23:34:13.518Z,4.72
2022-08-17T23:37:19.929Z,4.68
2022-08-17T23:40:27.645Z,4.35
2022-08-17T23:43:31.614Z,4.78
2022-08-17T23:46:34.731Z,4.72
2022-08-17T23:49:37.589Z,4.07
2022-08-17T23:52:43.220Z,4.95
2022-08-17T23:55:46.365Z,4.50
2022-08-17T23:59:09.225Z,4.90
